Time;durP1;ratioP1;P1;durP2;ratioP2;P2;SDS_P1;SDS_P2;PMS_P1;PMS_P2;Temp;Humidity;BMP_temperature;BMP_pressure;BME280_temperature;BME280_humidity;BME280_pressure;Samples;Min_cycle;Max_cycle;Signal;HPM_P1;HPM_P2
2020/12/26 00:00:48;;;;;;;1.43;1.20;;;;;;;3.04;100.00;98478.75;5095834;28;20265;-71
2020/12/26 00:03:14;;;;;;;2.63;1.40;;;;;;;3.10;100.00;98472.19;5117298;28;20246;-71
2020/12/26 00:05:40;;;;;;;1.93;1.10;;;;;;;3.00;100.00;98477.66;5099683;28;20227;-71
2020/12/26 00:08:06;;;;;;;1.93;1.20;;;;;;;2.98;100.00;98479.84;5120914;28;20200;-71
2020/12/26 00:10:32;;;;;;;3.17;1.23;;;;;;;3.09;100.00;98484.16;5113568;28;20304;-70
2020/12/26 00:12:58;;;;;;;2.87;1.37;;;;;;;3.05;100.00;98486.63;5112188;28;20636;-71
2020/12/26 00:15:24;;;;;;;3.57;1.57;;;;;;;2.88;100.00;98480.72;5095236;28;20255;-72
2020/12/26 00:17:50;;;;;;;2.40;1.20;;;;;;;2.70;100.00;98483.25;5095119;28;20200;-71
2020/12/26 00:20:20;;;;;;;1.30;1.20;;;;;;;2.78;100.00;98483.50;5113599;28;20295;-72
2020/12/26 00:22:46;;;;;;;2.57;1.30;;;;;;;2.87;100.00;98475.53;5113220;28;20290;-71
2020/12/26 00:25:12;;;;;;;3.33;1.40;;;;;;;2.61;100.00;98480.28;5112907;28;20224;-71
2020/12/26 00:27:38;;;;;;;2.30;1.30;;;;;;;2.58;100.00;98480.03;5113125;28;20273;-70
2020/12/26 00:30:06;;;;;;;1.47;1.30;;;;;;;2.77;100.00;98473.69;5113167;28;20203;-70
2020/12/26 00:32:34;;;;;;;2.37;1.10;;;;;;;2.77;100.00;98476.41;5113244;28;20216;-70
2020/12/26 00:35:00;;;;;;;2.20;1.40;;;;;;;2.75;100.00;98475.06;5112869;28;20311;-71
2020/12/26 00:37:26;;;;;;;1.97;1.27;;;;;;;2.69;100.00;98479.72;5113128;28;20721;-71
2020/12/26 00:39:52;;;;;;;1.80;1.50;;;;;;;2.70;100.00;98477.81;5111893;28;20212;-71
2020/12/26 00:42:18;;;;;;;3.03;1.63;;;;;;;2.65;100.00;98486.81;5112698;28;20239;-70
2020/12/26 00:44:44;;;;;;;3.97;1.60;;;;;;;2.51;100.00;98477.59;5112585;28;20410;-70
2020/12/26 00:47:11;;;;;;;4.13;1.30;;;;;;;2.56;100.00;98477.59;5112977;28;20210;-70
2020/12/26 00:49:39;;;;;;;2.70;1.43;;;;;;;2.46;100.00;98485.78;5094939;28;20204;-70
2020/12/26 00:52:05;;;;;;;1.50;1.40;;;;;;;2.59;100.00;98476.22;5112799;28;20768;-70
2020/12/26 00:54:31;;;;;;;3.67;1.60;;;;;;;2.55;100.00;98472.41;5094387;28;20306;-70
2020/12/26 00:56:57;;;;;;;2.10;1.37;;;;;;;2.76;100.00;98477.50;5112542;28;20316;-70
2020/12/26 01:33:51;;;;;;;2.07;1.10;;;;;;;2.51;100.00;98490.41;5089034;28;20922;-71
2020/12/26 01:36:18;;;;;;;2.33;1.20;;;;;;;2.76;100.00;98493.03;5089185;28;20316;-72
2020/12/26 01:38:44;;;;;;;1.33;1.03;;;;;;;2.84;100.00;98489.75;5089923;28;20204;-71
2020/12/26 01:41:13;;;;;;;1.60;1.20;;;;;;;2.79;100.00;98492.50;5091193;28;20224;-72
2020/12/26 01:43:52;;;;;;;2.50;1.00;;;;;;;2.82;100.00;98497.38;5095262;28;20271;-71
2020/12/26 01:46:18;;;;;;;1.67;1.10;;;;;;;2.53;100.00;98494.47;5090654;28;20313;-70
2020/12/26 01:48:44;;;;;;;2.60;1.33;;;;;;;2.65;100.00;98491.44;5089977;28;20244;-71
2020/12/26 01:51:11;;;;;;;4.63;1.17;;;;;;;2.94;100.00;98495.97;5089204;28;20262;-71
2020/12/26 01:53:37;;;;;;;1.97;1.00;;;;;;;2.96;100.00;98493.78;5088854;28;20315;-72
2020/12/26 01:56:03;;;;;;;3.17;1.10;;;;;;;2.86;100.00;98488.38;5089061;28;20646;-71
2020/12/26 01:58:34;;;;;;;2.87;1.50;;;;;;;3.00;100.00;98485.84;5088308;28;20236;-71
2020/12/26 02:01:00;;;;;;;3.47;1.20;;;;;;;3.08;100.00;98490.72;5086501;28;20291;-71
2020/12/26 02:03:26;;;;;;;1.40;1.10;;;;;;;3.04;100.00;98503.28;5087034;28;20279;-71
2020/12/26 02:05:54;;;;;;;2.57;1.30;;;;;;;2.94;100.00;98501.41;5099815;28;20221;-71
2020/12/26 02:08:20;;;;;;;2.87;1.60;;;;;;;2.62;100.00;98497.44;5100514;28;20240;-71
2020/12/26 02:10:46;;;;;;;1.50;1.07;;;;;;;2.55;100.00;98491.47;5090768;28;20205;-71
2020/12/26 02:13:12;;;;;;;5.63;1.20;;;;;;;2.77;100.00;98505.59;5089350;28;20324;-71
2020/12/26 02:15:38;;;;;;;2.17;1.10;;;;;;;2.74;100.00;98500.66;5089027;28;20583;-71
2020/12/26 02:18:04;;;;;;;2.37;1.60;;;;;;;2.76;100.00;98506.66;5088380;28;20209;-71
2020/12/26 02:20:36;;;;;;;1.30;1.20;;;;;;;2.75;100.00;98508.59;5087692;28;20295;-71
2020/12/26 02:23:03;;;;;;;1.60;0.93;;;;;;;2.61;100.00;98512.19;5087299;28;20215;-71
2020/12/26 02:25:29;;;;;;;1.43;1.00;;;;;;;2.61;100.00;98521.13;5088119;28;20221;-71
2020/12/26 02:27:55;;;;;;;2.07;1.40;;;;;;;2.51;100.00;98512.19;5088231;28;20299;-71
2020/12/26 02:30:22;;;;;;;2.23;1.17;;;;;;;2.54;100.00;98508.91;5087075;28;20234;-71
2020/12/26 02:32:48;;;;;;;2.33;1.10;;;;;;;2.69;100.00;98514.31;5087714;28;20319;-71
2020/12/26 02:35:14;;;;;;;2.20;1.10;;;;;;;2.66;100.00;98506.72;5088298;28;20309;-71
2020/12/26 02:37:40;;;;;;;1.67;1.03;;;;;;;2.71;100.00;98512.13;5088355;28;20244;-71
2020/12/26 02:40:07;;;;;;;2.63;0.93;;;;;;;2.53;100.00;98510.81;5088224;28;20250;-72
2020/12/26 02:42:33;;;;;;;1.83;1.20;;;;;;;2.40;100.00;98510.56;5088016;28;20217;-71
2020/12/26 02:44:59;;;;;;;2.03;1.00;;;;;;;2.34;100.00;98509.78;5075118;28;20295;-71
2020/12/26 02:47:26;;;;;;;1.80;1.10;;;;;;;2.40;100.00;98511.41;5074655;28;20213;-71
2020/12/26 02:49:52;;;;;;;1.83;1.00;;;;;;;2.56;100.00;98512.16;5075069;28;20296;-72
2020/12/26 02:52:18;;;;;;;2.43;1.10;;;;;;;2.60;100.00;98516.81;5079643;28;20634;-72
2020/12/26 02:54:44;;;;;;;1.07;0.80;;;;;;;2.84;100.00;98522.44;5088383;28;20205;-71
2020/12/26 02:57:10;;;;;;;1.17;1.07;;;;;;;2.83;100.00;98526.25;5086814;28;20620;-70
2020/12/26 02:59:36;;;;;;;2.97;1.07;;;;;;;2.56;100.00;98523.06;5080560;28;20212;-71
2020/12/26 03:02:02;;;;;;;1.97;0.90;;;;;;;2.66;100.00;98523.06;5074473;28;20205;-72
2020/12/26 03:04:28;;;;;;;2.93;0.90;;;;;;;2.69;100.00;98519.75;5074138;28;20205;-72
2020/12/26 03:06:54;;;;;;;2.57;1.00;;;;;;;2.56;100.00;98526.59;5073549;28;20294;-72
2020/12/26 03:09:20;;;;;;;2.67;0.87;;;;;;;2.57;100.00;98524.72;5074141;28;20642;-71
2020/12/26 03:11:46;;;;;;;2.80;1.00;;;;;;;2.66;100.00;98520.31;5073490;28;20216;-71
2020/12/26 03:14:12;;;;;;;1.67;0.90;;;;;;;2.71;100.00;98528.47;5072550;28;20582;-71
2020/12/26 03:16:39;;;;;;;1.93;0.93;;;;;;;2.77;100.00;98533.63;5074077;28;20702;-71
2020/12/26 03:19:05;;;;;;;3.27;0.83;;;;;;;2.90;100.00;98543.94;5073548;28;20213;-72
2020/12/26 03:21:32;;;;;;;4.03;1.07;;;;;;;3.07;100.00;98543.59;5076402;28;20205;-71
2020/12/26 03:23:58;;;;;;;2.27;0.97;;;;;;;2.89;100.00;98547.78;5075143;28;20243;-73
2020/12/26 03:26:24;;;;;;;1.20;0.80;;;;;;;2.95;100.00;98546.66;5074194;28;20233;-70
2020/12/26 03:28:50;;;;;;;4.57;1.00;;;;;;;2.67;100.00;98550.00;5073561;28;20243;-71
2020/12/26 03:31:16;;;;;;;1.60;0.90;;;;;;;2.36;100.00;98547.59;5073773;28;20228;-73
2020/12/26 03:33:42;;;;;;;1.87;0.80;;;;;;;2.52;100.00;98551.97;5073168;28;20313;-71
2020/12/26 03:36:08;;;;;;;2.10;1.10;;;;;;;2.67;100.00;98555.47;5073682;28;20260;-71
2020/12/26 03:38:35;;;;;;;0.90;0.80;;;;;;;2.58;100.00;98556.28;5072379;28;20677;-71
2020/12/26 03:41:01;;;;;;;3.50;1.00;;;;;;;2.63;100.00;98559.00;5073467;28;20202;-71
2020/12/26 03:43:28;;;;;;;2.23;0.83;;;;;;;2.67;100.00;98557.34;5073029;28;20201;-72
2020/12/26 03:45:54;;;;;;;2.27;0.93;;;;;;;2.55;100.00;98556.84;5073047;28;20657;-73
2020/12/26 03:48:20;;;;;;;1.63;0.90;;;;;;;2.65;100.00;98556.81;5073445;28;20212;-72
2020/12/26 03:50:46;;;;;;;2.63;1.20;;;;;;;2.68;100.00;98564.47;5073270;28;20205;-71
2020/12/26 03:53:12;;;;;;;2.07;1.00;;;;;;;2.73;100.00;98564.44;5071749;28;20251;-71
2020/12/26 03:55:40;;;;;;;0.93;0.83;;;;;;;2.61;100.00;98558.47;5072166;28;20225;-73
2020/12/26 03:58:05;;;;;;;1.90;0.97;;;;;;;2.67;100.00;98560.09;5073088;28;20296;-71
2020/12/26 04:00:31;;;;;;;1.80;0.83;;;;;;;2.64;100.00;98560.66;5071856;28;20209;-72
2020/12/26 04:02:57;;;;;;;2.17;0.80;;;;;;;2.74;100.00;98555.16;5072739;28;20205;-71
2020/12/26 04:05:23;;;;;;;1.93;0.97;;;;;;;2.96;100.00;98563.81;5072624;28;20224;-71
2020/12/26 04:07:49;;;;;;;1.23;0.87;;;;;;;2.97;100.00;98565.47;5072774;28;20304;-70
2020/12/26 04:10:15;;;;;;;2.80;1.00;;;;;;;2.99;100.00;98569.53;5072466;28;20733;-70
2020/12/26 04:12:41;;;;;;;4.23;1.30;;;;;;;2.90;100.00;98564.94;5072783;28;20223;-71
2020/12/26 04:15:07;;;;;;;2.27;1.00;;;;;;;2.77;100.00;98565.53;5072762;28;20635;-71
2020/12/26 04:17:33;;;;;;;1.43;0.90;;;;;;;2.72;100.00;98568.28;5071775;28;20212;-71
2020/12/26 04:19:59;;;;;;;1.53;1.10;;;;;;;2.73;100.00;98573.44;5073012;28;20296;-71
2020/12/26 04:22:25;;;;;;;0.90;0.70;;;;;;;2.44;100.00;98574.31;5086520;28;20212;-72
2020/12/26 04:24:51;;;;;;;2.03;1.10;;;;;;;2.30;100.00;98576.75;5085736;28;20685;-71
2020/12/26 04:27:17;;;;;;;2.10;0.90;;;;;;;2.43;100.00;98580.81;5072184;28;20212;-70
2020/12/26 04:29:44;;;;;;;2.77;0.80;;;;;;;2.60;100.00;98584.06;5072589;28;20216;-71
2020/12/26 04:32:11;;;;;;;1.77;0.90;;;;;;;2.66;100.00;98591.16;5072518;28;20312;-71
2020/12/26 04:34:37;;;;;;;1.40;0.73;;;;;;;2.94;100.00;98594.09;5072330;28;20219;-70
2020/12/26 04:37:03;;;;;;;2.13;0.93;;;;;;;2.99;100.00;98591.34;5072339;28;20237;-72
2020/12/26 04:39:30;;;;;;;1.77;0.80;;;;;;;3.01;100.00;98596.53;5072368;28;20205;-73
2020/12/26 04:41:56;;;;;;;0.90;0.60;;;;;;;2.77;100.00;98600.94;5072000;28;20681;-72
2020/12/26 04:44:23;;;;;;;2.70;0.90;;;;;;;2.62;100.00;98606.41;5072275;28;20243;-72
2020/12/26 04:46:50;;;;;;;3.77;0.83;;;;;;;3.00;100.00;98608.50;5071918;28;20225;-72
2020/12/26 04:49:18;;;;;;;1.53;0.77;;;;;;;3.07;100.00;98604.41;5072159;28;20653;-72
2020/12/26 04:51:44;;;;;;;3.57;1.30;;;;;;;3.00;100.00;98598.44;5071923;28;20241;-72
2020/12/26 04:54:13;;;;;;;3.07;0.70;;;;;;;2.91;100.00;98599.28;5072006;28;20263;-69
2020/12/26 04:56:44;;;;;;;3.47;1.00;;;;;;;2.91;100.00;98599.28;5072551;28;20232;-70
2020/12/26 04:59:11;;;;;;;3.70;0.70;;;;;;;2.61;100.00;98600.13;5073028;28;20706;-69
2020/12/26 05:01:40;;;;;;;1.47;0.97;;;;;;;2.54;100.00;98598.78;5072902;28;20251;-69
2020/12/26 05:04:08;;;;;;;2.20;1.00;;;;;;;2.99;100.00;98594.06;5078282;28;20201;-71
2020/12/26 05:06:45;;;;;;;1.47;0.73;;;;;;;3.23;100.00;98596.19;5078610;28;20260;-70
2020/12/26 05:09:13;;;;;;;1.97;0.87;;;;;;;3.12;100.00;98600.81;5084511;28;20215;-70
2020/12/26 05:11:39;;;;;;;1.30;1.03;;;;;;;3.06;100.00;98604.69;5072616;28;20678;-70
2020/12/26 05:14:07;;;;;;;2.57;0.97;;;;;;;3.05;100.00;98605.75;5070878;28;20245;-69
2020/12/26 05:16:33;;;;;;;3.03;1.00;;;;;;;2.85;100.00;98608.53;5072227;28;20264;-70
2020/12/26 05:18:59;;;;;;;2.93;1.10;;;;;;;2.86;100.00;98607.47;5072009;28;20239;-70
2020/12/26 05:21:25;;;;;;;2.63;1.10;;;;;;;2.56;100.00;98602.88;5071889;28;20209;-70
2020/12/26 05:24:08;;;;;;;2.77;0.93;;;;;;;2.82;100.00;98606.38;5071870;28;20247;-70
2020/12/26 05:26:42;;;;;;;1.40;0.80;;;;;;;3.16;100.00;98612.81;5071877;28;20315;-71
2020/12/26 05:29:10;;;;;;;1.63;0.87;;;;;;;3.13;100.00;98618.84;5071913;28;20208;-71
2020/12/26 05:31:48;;;;;;;2.57;0.70;;;;;;;3.13;100.00;98618.84;5071962;28;20208;-70
2020/12/26 05:34:14;;;;;;;3.67;1.10;;;;;;;2.99;100.00;98620.53;5070863;28;20235;-72
2020/12/26 05:36:41;;;;;;;2.30;1.00;;;;;;;2.59;100.00;98620.59;5071801;28;20265;-71
2020/12/26 05:39:08;;;;;;;2.90;1.20;;;;;;;2.61;100.00;98621.13;5071689;28;20653;-70
2020/12/26 05:41:38;;;;;;;2.40;1.00;;;;;;;2.87;100.00;98614.53;5072423;28;20254;-70
2020/12/26 05:44:04;;;;;;;3.73;0.90;;;;;;;3.04;100.00;98612.31;5072942;28;20274;-70
2020/12/26 05:46:30;;;;;;;1.97;0.90;;;;;;;2.99;100.00;98615.06;5071351;28;20279;-70
2020/12/26 05:48:56;;;;;;;4.73;1.00;;;;;;;3.00;100.00;98622.97;5071780;28;20205;-69
2020/12/26 05:51:24;;;;;;;1.53;0.90;;;;;;;2.97;100.00;98620.78;5075427;28;20248;-70
2020/12/26 05:54:02;;;;;;;1.33;1.00;;;;;;;3.13;100.00;98623.47;5085985;28;20235;-70
2020/12/26 05:56:33;;;;;;;2.40;1.00;;;;;;;3.01;100.00;98626.53;5072265;28;20252;-72
2020/12/26 05:58:59;;;;;;;1.70;0.77;;;;;;;3.07;100.00;98633.56;5071513;28;20201;-71
2020/12/26 06:01:25;;;;;;;1.43;0.90;;;;;;;2.92;100.00;98639.03;5071946;28;20251;-71
2020/12/26 06:03:51;;;;;;;1.90;1.13;;;;;;;2.90;100.00;98641.25;5071673;28;20224;-71
2020/12/26 06:06:19;;;;;;;1.20;1.00;;;;;;;2.71;100.00;98642.91;5071266;28;20221;-71
2020/12/26 06:08:48;;;;;;;1.73;0.80;;;;;;;2.98;100.00;98643.41;5071480;28;20236;-71
2020/12/26 06:11:15;;;;;;;2.33;1.10;;;;;;;2.79;100.00;98651.34;5071167;28;20288;-71
2020/12/26 06:13:42;;;;;;;1.70;0.97;;;;;;;2.87;100.00;98655.41;5071348;28;20225;-71
2020/12/26 06:16:20;;;;;;;3.10;1.20;;;;;;;3.03;100.00;98644.22;5070504;28;20221;-71
2020/12/26 06:18:57;;;;;;;0.80;0.80;;;;;;;2.92;100.00;98649.94;5071270;28;20739;-71
2020/12/26 06:21:24;;;;;;;1.80;1.10;;;;;;;2.69;100.00;98656.00;5075382;28;20216;-71
2020/12/26 06:23:51;;;;;;;2.20;1.30;;;;;;;2.79;100.00;98654.06;5074803;28;20717;-70
2020/12/26 06:26:18;;;;;;;2.50;1.30;;;;;;;2.51;100.00;98653.81;5074871;28;20327;-70
2020/12/26 06:28:45;;;;;;;2.70;1.40;;;;;;;2.59;100.00;98648.63;5075054;28;20629;-70
2020/12/26 06:31:13;;;;;;;4.23;1.47;;;;;;;2.57;100.00;98650.00;5073737;28;20215;-70
2020/12/26 06:33:40;;;;;;;3.03;1.50;;;;;;;2.78;100.00;98648.88;5074622;28;20243;-70
2020/12/26 06:36:07;;;;;;;2.87;1.63;;;;;;;2.49;100.00;98648.66;5074855;28;20243;-70
2020/12/26 06:38:35;;;;;;;5.37;1.90;;;;;;;2.52;100.00;98650.03;5074760;28;20693;-72
2020/12/26 06:41:05;;;;;;;4.30;2.13;;;;;;;2.49;100.00;98645.94;5074648;28;20765;-71
2020/12/26 06:43:44;;;;;;;3.50;1.77;;;;;;;2.60;100.00;98663.06;5074768;28;20212;-71
2020/12/26 06:46:13;;;;;;;3.07;1.27;;;;;;;2.51;100.00;98668.25;5076595;28;20773;-70
2020/12/26 06:48:40;;;;;;;3.83;1.67;;;;;;;2.59;100.00;98667.69;5073891;28;20209;-70
2020/12/26 06:51:42;;;;;;;4.13;1.80;;;;;;;2.79;100.00;98667.69;5074715;28;20220;-71
2020/12/26 06:54:09;;;;;;;3.53;1.43;;;;;;;2.58;100.00;98676.16;5066910;28;20281;-70
2020/12/26 06:56:36;;;;;;;4.03;1.70;;;;;;;2.52;100.00;98677.25;5074454;28;20225;-70
2020/12/26 06:59:06;;;;;;;4.10;1.60;;;;;;;2.52;100.00;98677.25;5074518;28;20244;-70
2020/12/26 07:01:33;;;;;;;3.17;1.57;;;;;;;2.44;100.00;98691.41;5075032;28;20201;-71
2020/12/26 07:04:16;;;;;;;3.27;1.60;;;;;;;2.47;100.00;98686.22;5072940;28;20662;-70
2020/12/26 07:06:53;;;;;;;3.50;1.87;;;;;;;2.56;100.00;98683.78;5074097;28;20316;-69
2020/12/26 07:09:45;;;;;;;3.80;1.63;;;;;;;2.23;100.00;98689.75;5074653;28;20212;-70
2020/12/26 07:12:13;;;;;;;2.57;1.67;;;;;;;2.39;100.00;98696.84;5073833;28;20680;-70
2020/12/26 07:14:45;;;;;;;3.40;1.90;;;;;;;2.12;100.00;98699.00;5073910;28;20632;-71
2020/12/26 07:17:14;;;;;;;2.30;1.50;;;;;;;2.15;100.00;98703.88;5073067;28;20283;-70
2020/12/26 07:19:47;;;;;;;4.93;1.90;;;;;;;2.14;100.00;98696.78;5073025;28;20254;-71
2020/12/26 07:22:27;;;;;;;2.90;1.60;;;;;;;2.26;100.00;98694.66;5089839;28;20212;-71
2020/12/26 07:24:54;;;;;;;3.27;1.80;;;;;;;2.10;100.00;98699.25;5083533;28;20215;-71
2020/12/26 07:27:21;;;;;;;3.20;1.97;;;;;;;2.16;100.00;98695.44;5077148;28;20300;-71
2020/12/26 07:30:01;;;;;;;4.63;2.00;;;;;;;1.87;100.00;98707.91;5076497;28;20288;-71
2020/12/26 07:32:36;;;;;;;4.77;2.00;;;;;;;1.91;100.00;98719.88;5074049;28;20229;-72
2020/12/26 07:35:08;;;;;;;3.63;2.10;;;;;;;1.93;100.00;98721.25;5075549;28;20258;-72
2020/12/26 07:37:34;;;;;;;5.20;2.10;;;;;;;2.00;100.00;98727.28;5074354;28;20244;-72
2020/12/26 07:40:00;;;;;;;3.27;1.90;;;;;;;2.05;100.00;98719.13;5074401;28;20232;-70
2020/12/26 07:42:27;;;;;;;4.53;1.90;;;;;;;2.30;100.00;98720.25;5073182;28;20227;-70
2020/12/26 07:44:53;;;;;;;3.60;2.20;;;;;;;2.51;100.00;98721.91;5073390;28;20644;-71
2020/12/26 07:47:20;;;;;;;4.13;2.00;;;;;;;2.54;100.00;98718.63;5072347;28;21008;-71
2020/12/26 07:49:59;;;;;;;2.80;1.60;;;;;;;2.41;100.00;98716.47;5073731;28;20296;-70
2020/12/26 07:52:25;;;;;;;4.10;1.67;;;;;;;2.44;100.00;98721.38;5073386;28;20228;-71
2020/12/26 07:54:59;;;;;;;3.80;1.60;;;;;;;2.67;100.00;98724.38;5073367;28;20258;-70
2020/12/26 07:57:26;;;;;;;5.50;2.13;;;;;;;4.08;100.00;98724.88;5073756;28;20215;-70
2020/12/26 07:59:52;;;;;;;1.93;1.40;;;;;;;5.37;100.00;98714.28;5072273;28;20673;-71
2020/12/26 08:02:19;;;;;;;2.70;1.50;;;;;;;5.91;100.00;98712.84;5073608;28;20288;-71
2020/12/26 08:04:46;;;;;;;3.33;1.50;;;;;;;6.10;100.00;98713.72;5073718;28;20296;-71
2020/12/26 08:07:17;;;;;;;5.80;1.80;;;;;;;6.44;100.00;98712.72;5090305;28;20205;-71
2020/12/26 08:09:54;;;;;;;3.53;1.70;;;;;;;6.47;100.00;98714.84;5080585;28;20292;-72
2020/12/26 08:12:21;;;;;;;1.43;1.20;;;;;;;7.18;100.00;98702.44;5053242;28;20300;-72
2020/12/26 08:14:57;;;;;;;1.57;1.20;;;;;;;7.88;100.00;98704.97;5053140;28;20296;-71
2020/12/26 08:17:25;;;;;;;3.03;1.70;;;;;;;7.99;100.00;98698.91;5053190;28;20210;-73
2020/12/26 08:19:59;;;;;;;2.63;1.60;;;;;;;8.72;100.00;98695.13;5053692;28;20309;-72
2020/12/26 08:22:27;;;;;;;2.33;1.40;;;;;;;9.06;100.00;98703.66;5052943;28;20601;-73
2020/12/26 08:25:06;;;;;;;2.70;1.50;;;;;;;8.86;100.00;98704.16;5055669;28;20691;-69
2020/12/26 08:27:37;;;;;;;3.07;1.73;;;;;;;9.12;100.00;98705.16;5057263;28;20206;-69
2020/12/26 08:30:13;;;;;;;2.53;1.57;;;;;;;9.14;100.00;98694.66;5054638;28;20630;-69
2020/12/26 08:33:18;;;;;;;2.80;1.35;;;;;;;9.08;100.00;98706.91;5052621;28;20300;-70
2020/12/26 08:35:54;;;;;;;2.17;1.40;;;;;;;9.19;100.00;98702.78;5044032;28;20647;-68
2020/12/26 08:38:34;;;;;;;7.78;1.50;;;;;;;8.99;100.00;98704.09;5052794;28;20244;-69
2020/12/26 08:41:04;;;;;;;2.63;1.40;;;;;;;9.14;100.00;98709.19;5052219;28;20677;-70
2020/12/26 08:43:31;;;;;;;2.50;1.55;;;;;;;9.06;100.00;98709.16;5051583;28;20234;-68
2020/12/26 08:45:57;;;;;;;2.03;1.50;;;;;;;9.10;100.00;98699.94;5052180;28;20222;-70
2020/12/26 08:48:24;;;;;;;2.72;1.88;;;;;;;9.34;100.00;98702.38;5052300;28;20664;-67
2020/12/26 08:50:57;;;;;;;4.38;1.90;;;;;;;9.08;100.00;98715.16;5071544;28;20194;-74
2020/12/26 08:53:29;;;;;;;2.90;1.60;;;;;;;8.94;100.00;98714.41;5068121;28;20229;-70
2020/12/26 08:55:55;;;;;;;2.90;1.55;;;;;;;9.07;100.00;98717.09;5069371;28;20263;-68
2020/12/26 08:58:30;;;;;;;2.73;1.60;;;;;;;9.40;100.00;98709.34;5072006;28;20212;-68
2020/12/26 09:01:05;;;;;;;2.07;1.60;;;;;;;9.73;100.00;98705.16;5072007;28;20342;-68
2020/12/26 09:03:33;;;;;;;2.97;1.60;;;;;;;9.95;100.00;98705.09;5069917;28;20303;-68
2020/12/26 09:06:01;;;;;;;2.28;1.45;;;;;;;9.97;100.00;98697.31;5071596;28;20221;-67
2020/12/26 09:08:31;;;;;;;2.45;1.50;;;;;;;9.57;100.00;98692.94;5071576;28;20200;-70
2020/12/26 09:11:01;;;;;;;2.27;1.40;;;;;;;9.75;100.00;98697.38;5071766;28;20223;-69
2020/12/26 09:13:33;;;;;;;2.17;1.40;;;;;;;9.71;100.00;98699.16;5070398;28;20284;-68
2020/12/26 09:16:03;;;;;;;3.97;1.65;;;;;;;9.83;100.00;98696.63;5070931;28;20312;-67
2020/12/26 09:18:35;;;;;;;2.53;1.60;;;;;;;10.08;100.00;98697.81;5070620;28;20217;-67
2020/12/26 09:21:01;;;;;;;3.07;1.53;;;;;;;9.55;100.00;98703.44;5070555;28;20283;-70
2020/12/26 09:23:40;;;;;;;3.07;1.37;;;;;;;9.18;100.00;98707.44;5069063;28;20225;-69
2020/12/26 09:26:26;;;;;;;4.70;1.77;;;;;;;9.60;100.00;98714.34;5070309;28;20225;-69
2020/12/26 09:28:58;;;;;;;2.60;1.60;;;;;;;10.03;100.00;98707.06;5051681;28;20313;-71
2020/12/26 09:31:30;;;;;;;2.10;1.30;;;;;;;10.25;100.00;98708.13;5051192;28;20725;-71
2020/12/26 09:33:58;;;;;;;3.17;1.43;;;;;;;10.39;100.00;98703.25;5050890;28;20293;-73
2020/12/26 09:36:26;;;;;;;1.70;1.13;;;;;;;10.02;100.00;98705.44;5051606;28;20252;-71
2020/12/26 09:38:54;;;;;;;2.13;1.37;;;;;;;10.03;100.00;98696.03;5060673;28;20194;-70
2020/12/26 09:41:21;;;;;;;3.87;1.70;;;;;;;10.35;100.00;98692.06;5060771;28;20197;-70
2020/12/26 09:43:52;;;;;;;2.93;1.47;;;;;;;10.44;100.00;98700.38;5061133;28;20678;-71
2020/12/26 09:46:18;;;;;;;1.90;1.03;;;;;;;10.07;100.00;98685.97;5061066;28;20301;-71
2020/12/26 09:48:45;;;;;;;2.50;1.30;;;;;;;9.00;100.00;98704.88;5060146;28;20251;-72
2020/12/26 09:51:16;;;;;;;2.17;1.40;;;;;;;9.63;100.00;98696.38;5060111;28;20198;-72
2020/12/26 09:53:43;;;;;;;2.60;1.27;;;;;;;9.78;100.00;98698.72;5060545;28;20236;-70
2020/12/26 09:56:11;;;;;;;1.60;1.03;;;;;;;9.54;100.00;98698.25;5064758;28;20301;-72
2020/12/26 09:58:39;;;;;;;4.47;1.20;;;;;;;9.76;100.00;98685.22;5065720;28;20284;-71
2020/12/26 10:01:06;;;;;;;1.07;0.93;;;;;;;9.78;100.00;98696.75;5071025;28;20228;-74
2020/12/26 10:03:33;;;;;;;2.87;1.03;;;;;;;9.77;100.00;98697.88;5066056;28;20656;-72
2020/12/26 10:05:59;;;;;;;2.70;1.03;;;;;;;9.43;100.00;98686.72;5069260;28;20224;-73
2020/12/26 10:08:29;;;;;;;2.67;0.97;;;;;;;9.67;100.00;98687.13;5064235;28;20204;-71
2020/12/26 10:10:55;;;;;;;4.63;1.20;;;;;;;8.98;100.00;98683.19;5065523;28;20244;-72
2020/12/26 10:13:21;;;;;;;1.83;1.00;;;;;;;9.47;100.00;98687.69;5063835;28;20611;-72
2020/12/26 10:15:47;;;;;;;1.90;1.30;;;;;;;9.06;100.00;98692.63;5064143;28;20312;-70
2020/12/26 10:18:14;;;;;;;2.97;1.30;;;;;;;9.16;100.00;98689.59;5067433;28;20683;-67
2020/12/26 10:20:40;;;;;;;3.00;1.27;;;;;;;9.30;100.00;98693.13;5080525;28;20467;-73
2020/12/26 10:23:07;;;;;;;1.30;0.80;;;;;;;9.32;100.00;98684.53;5066668;28;20221;-72
2020/12/26 10:25:46;;;;;;;5.50;1.17;;;;;;;9.06;100.00;98684.38;5062397;28;20229;-70
2020/12/26 10:28:12;;;;;;;2.10;1.00;;;;;;;8.90;100.00;98691.38;5065455;28;20193;-70
2020/12/26 10:30:38;;;;;;;3.80;0.70;;;;;;;8.32;100.00;98698.81;5064524;28;20728;-68
2020/12/26 10:33:04;;;;;;;2.23;1.00;;;;;;;8.34;100.00;98700.13;5063253;28;20209;-69
2020/12/26 10:35:30;;;;;;;2.70;1.07;;;;;;;7.79;100.00;98699.34;5062162;28;20305;-69
2020/12/26 10:37:56;;;;;;;1.37;0.90;;;;;;;7.27;100.00;98699.81;5063105;28;20217;-69
2020/12/26 10:40:23;;;;;;;2.50;0.80;;;;;;;7.38;100.00;98694.94;5063545;28;20227;-67
2020/12/26 10:42:49;;;;;;;3.70;0.93;;;;;;;6.94;100.00;98695.44;5064737;28;20307;-71
2020/12/26 10:45:15;;;;;;;3.07;1.00;;;;;;;6.88;100.00;98704.88;5066685;28;20217;-70
2020/12/26 10:47:41;;;;;;;2.10;1.03;;;;;;;6.88;100.00;98697.47;5074281;28;20247;-73
2020/12/26 10:50:08;;;;;;;4.33;1.20;;;;;;;7.35;100.00;98699.13;5072755;28;20209;-69
2020/12/26 10:52:34;;;;;;;2.47;0.90;;;;;;;7.50;100.00;98690.56;5072580;28;20217;-71
2020/12/26 10:55:00;;;;;;;3.17;0.93;;;;;;;7.19;100.00;98686.78;5072495;28;20243;-69
2020/12/26 10:57:26;;;;;;;1.90;0.87;;;;;;;7.51;100.00;98686.72;5074961;28;20674;-72
2020/12/26 10:59:52;;;;;;;2.03;1.10;;;;;;;7.97;100.00;98692.13;5076051;28;20265;-70
2020/12/26 11:02:18;;;;;;;1.50;1.03;;;;;;;8.14;100.00;98684.88;5077087;28;20209;-70
2020/12/26 11:04:44;;;;;;;1.77;1.10;;;;;;;8.20;100.00;98686.38;5093875;28;20243;-70
2020/12/26 11:07:10;;;;;;;3.13;1.40;;;;;;;8.22;100.00;98672.34;5072700;28;20205;-71
2020/12/26 11:09:37;;;;;;;2.23;1.00;;;;;;;8.09;100.00;98667.66;5062208;28;20296;-67
2020/12/26 11:12:03;;;;;;;3.97;1.30;;;;;;;7.87;100.00;98673.91;5069150;28;20202;-70
2020/12/26 11:14:29;;;;;;;2.00;0.97;;;;;;;7.86;100.00;98675.03;5068930;28;20237;-69
2020/12/26 11:16:55;;;;;;;4.80;1.17;;;;;;;7.77;100.00;98679.59;5070025;28;20653;-70
2020/12/26 11:19:22;;;;;;;2.40;1.20;;;;;;;8.05;100.00;98667.47;5069816;28;20284;-70
2020/12/26 11:21:51;;;;;;;3.10;1.43;;;;;;;8.47;100.00;98662.69;5068718;28;20293;-72
2020/12/26 11:24:18;;;;;;;4.27;1.23;;;;;;;8.18;100.00;98663.88;5069329;28;20233;-71
2020/12/26 11:26:44;;;;;;;5.00;1.40;;;;;;;8.04;100.00;98660.38;5070065;28;20229;-71
2020/12/26 11:29:11;;;;;;;3.40;1.10;;;;;;;7.79;100.00;98673.81;5068383;28;20243;-71
2020/12/26 11:31:37;;;;;;;4.90;1.40;;;;;;;8.14;100.00;98664.81;5068448;28;20722;-73
2020/12/26 11:34:03;;;;;;;3.67;1.30;;;;;;;7.42;100.00;98665.78;5069470;28;20193;-70
2020/12/26 11:36:30;;;;;;;1.10;0.80;;;;;;;7.14;100.00;98663.00;5071455;28;20312;-70
2020/12/26 11:38:57;;;;;;;4.27;1.20;;;;;;;7.52;100.00;98652.66;5077225;28;20462;-72
2020/12/26 11:41:25;;;;;;;4.67;1.30;;;;;;;6.96;100.00;98661.13;5078381;28;20232;-70
2020/12/26 11:43:53;;;;;;;2.60;1.00;;;;;;;6.83;100.00;98655.59;5078458;28;20224;-72
2020/12/26 11:46:19;;;;;;;2.20;1.33;;;;;;;7.15;100.00;98648.13;5075846;28;20229;-70
2020/12/26 11:48:45;;;;;;;2.67;1.53;;;;;;;7.15;100.00;98650.88;5082353;28;20229;-70
2020/12/26 11:51:13;;;;;;;1.77;1.23;;;;;;;6.63;100.00;98653.19;5076804;28;20283;-71
2020/12/26 11:53:39;;;;;;;4.20;1.40;;;;;;;6.72;100.00;98643.16;5049263;28;20194;-70
2020/12/26 11:56:15;;;;;;;1.73;1.20;;;;;;;6.43;100.00;98642.53;5061406;28;20597;-71
2020/12/26 11:58:43;;;;;;;2.00;1.20;;;;;;;6.61;100.00;98641.69;5063495;28;20724;-69
2020/12/26 12:01:10;;;;;;;4.57;1.60;;;;;;;6.66;100.00;98644.38;5061146;28;20202;-70
2020/12/26 12:03:37;;;;;;;4.20;1.73;;;;;;;6.58;100.00;98631.34;5062541;28;20308;-70
2020/12/26 12:06:04;;;;;;;2.80;1.33;;;;;;;6.65;100.00;98637.25;5062338;28;20308;-70
2020/12/26 12:08:30;;;;;;;2.93;1.57;;;;;;;6.56;100.00;98628.88;5064268;28;20308;-70
2020/12/26 12:10:57;;;;;;;1.80;1.30;;;;;;;6.52;100.00;98621.56;5061778;28;20286;-69
2020/12/26 12:13:23;;;;;;;2.37;1.30;;;;;;;6.36;100.00;98628.41;5059410;28;20193;-69